createdAt,value
2022-10-12T00:00:03.056Z,5.00
2022-10-12T00:01:03.072Z,5.00
2022-10-12T00:02:03.169Z,5.00
2022-10-12T00:03:03.077Z,5.00
2022-10-12T00:04:03.093Z,5.00
2022-10-12T00:05:03.004Z,4.90
2022-10-12T00:06:02.997Z,4.90
2022-10-12T00:07:03.140Z,4.90
2022-10-12T00:08:03.184Z,4.90
2022-10-12T00:09:03.194Z,4.90
2022-10-12T00:10:03.384Z,4.90
2022-10-12T00:11:03.569Z,4.90
2022-10-12T00:12:03.610Z,4.90
2022-10-12T00:13:02.600Z,4.90
2022-10-12T00:14:04.434Z,4.90
2022-10-12T00:15:03.996Z,4.90
2022-10-12T00:16:02.663Z,4.90
2022-10-12T00:17:02.781Z,4.90
2022-10-12T00:18:02.821Z,4.90
2022-10-12T00:19:03.106Z,4.90
2022-10-12T00:20:02.768Z,4.90
2022-10-12T00:21:02.856Z,4.90
2022-10-12T00:22:02.815Z,4.90
2022-10-12T00:23:02.809Z,4.90
2022-10-12T00:24:02.937Z,4.90
2022-10-12T00:25:03.077Z,4.90
2022-10-12T00:26:03.126Z,4.90
2022-10-12T00:27:04.388Z,4.90
2022-10-12T00:28:03.434Z,4.90
2022-10-12T00:29:03.356Z,4.90
2022-10-12T00:30:03.428Z,4.90
2022-10-12T00:31:03.494Z,4.90
2022-10-12T00:32:03.392Z,4.90
2022-10-12T00:33:03.469Z,4.80
2022-10-12T00:34:03.513Z,4.80
2022-10-12T00:35:03.489Z,4.90
2022-10-12T00:36:03.476Z,4.80
2022-10-12T00:37:03.584Z,4.80
2022-10-12T00:38:03.573Z,4.80
2022-10-12T00:39:02.607Z,4.80
2022-10-12T00:40:02.767Z,4.80
2022-10-12T00:41:02.744Z,4.80
2022-10-12T00:42:02.760Z,4.80
2022-10-12T00:43:02.769Z,4.80
2022-10-12T00:44:02.712Z,4.80
2022-10-12T00:45:02.804Z,4.80
2022-10-12T00:46:02.797Z,4.80
2022-10-12T00:47:02.758Z,4.80
2022-10-12T00:48:02.805Z,4.80
2022-10-12T00:49:02.833Z,4.80
2022-10-12T00:50:02.824Z,4.70
2022-10-12T00:51:02.872Z,4.70
2022-10-12T00:52:02.945Z,4.70
2022-10-12T00:53:02.882Z,4.70
2022-10-12T00:54:03.019Z,4.70
2022-10-12T00:55:03.033Z,4.70
2022-10-12T00:56:02.931Z,4.70
2022-10-12T00:57:03.030Z,4.70
2022-10-12T00:58:02.961Z,4.70
2022-10-12T00:59:02.900Z,4.60
2022-10-12T01:00:02.954Z,4.60
2022-10-12T01:01:03.024Z,4.60
2022-10-12T01:02:03.006Z,4.60
2022-10-12T01:03:03.051Z,4.60
2022-10-12T01:04:03.081Z,4.60
2022-10-12T01:05:03.044Z,4.60
2022-10-12T01:06:03.004Z,4.60
2022-10-12T01:07:03.017Z,4.60
2022-10-12T01:08:03.144Z,4.60
2022-10-12T01:09:03.216Z,4.60
2022-10-12T01:10:03.172Z,4.60
2022-10-12T01:11:03.256Z,4.60
2022-10-12T01:12:03.331Z,4.50
2022-10-12T01:13:03.405Z,4.50
2022-10-12T01:14:03.542Z,4.50
2022-10-12T01:15:03.500Z,4.50
2022-10-12T01:16:03.521Z,4.50
2022-10-12T01:17:03.444Z,4.50
2022-10-12T01:18:03.548Z,4.50
2022-10-12T01:19:03.440Z,4.50
2022-10-12T01:20:03.567Z,4.50
2022-10-12T01:21:03.507Z,4.50
2022-10-12T01:22:03.590Z,4.50
2022-10-12T01:23:02.674Z,4.40
2022-10-12T01:24:02.713Z,4.40
2022-10-12T01:25:02.673Z,4.50
2022-10-12T01:26:02.780Z,4.50
2022-10-12T01:27:02.909Z,4.40
2022-10-12T01:28:02.896Z,4.40
2022-10-12T01:29:02.903Z,4.40
2022-10-12T01:30:02.928Z,4.40
2022-10-12T01:31:02.922Z,4.40
2022-10-12T01:32:02.969Z,4.40
2022-10-12T01:33:03.047Z,4.40
2022-10-12T01:34:03.042Z,4.40
2022-10-12T01:35:03.097Z,4.40
2022-10-12T01:36:03.083Z,4.40
2022-10-12T01:37:03.083Z,4.40
2022-10-12T01:38:03.116Z,4.40
2022-10-12T01:39:03.047Z,4.40
2022-10-12T01:40:03.083Z,4.40
2022-10-12T01:41:03.170Z,4.30
2022-10-12T01:42:03.212Z,4.30
2022-10-12T01:43:03.144Z,4.30
2022-10-12T01:44:03.200Z,4.30
2022-10-12T01:45:03.297Z,4.30
2022-10-12T01:46:03.292Z,4.40
2022-10-12T01:47:03.358Z,4.30
2022-10-12T01:48:03.449Z,4.30
2022-10-12T01:49:03.548Z,4.40
2022-10-12T01:50:02.654Z,4.30
2022-10-12T01:51:02.675Z,4.30
2022-10-12T01:52:02.639Z,4.30
2022-10-12T01:53:02.736Z,4.30
2022-10-12T01:54:02.651Z,4.30
2022-10-12T01:55:02.762Z,4.30
2022-10-12T01:56:02.689Z,4.30
2022-10-12T01:57:02.782Z,4.30
2022-10-12T01:58:02.681Z,4.30
2022-10-12T01:59:02.653Z,4.30
2022-10-12T02:00:02.755Z,4.30
2022-10-12T02:01:02.732Z,4.30
2022-10-12T02:02:02.683Z,4.30
2022-10-12T02:03:02.782Z,4.30
2022-10-12T02:04:02.713Z,4.30
2022-10-12T02:05:02.719Z,4.30
2022-10-12T02:06:02.702Z,4.30
2022-10-12T02:07:02.804Z,4.30
2022-10-12T02:08:02.725Z,4.40
2022-10-12T02:09:02.786Z,4.30
2022-10-12T02:10:02.686Z,4.40
2022-10-12T02:11:02.841Z,4.40
2022-10-12T02:12:02.758Z,4.40
2022-10-12T02:13:02.895Z,4.40
2022-10-12T02:14:02.880Z,4.40
2022-10-12T02:15:02.987Z,4.40
2022-10-12T02:16:02.970Z,4.40
2022-10-12T02:17:02.951Z,4.40
2022-10-12T02:18:02.918Z,4.40
2022-10-12T02:19:02.993Z,4.40
2022-10-12T02:20:03.012Z,4.50
2022-10-12T02:21:03.014Z,4.50
2022-10-12T02:22:02.990Z,4.50
2022-10-12T02:23:02.970Z,4.50
2022-10-12T02:24:02.993Z,4.50
2022-10-12T02:25:03.019Z,4.50
2022-10-12T02:26:03.008Z,4.50
2022-10-12T02:27:03.038Z,4.50
2022-10-12T02:28:02.999Z,4.50
2022-10-12T02:29:03.048Z,4.50
2022-10-12T02:30:03.091Z,4.60
2022-10-12T02:31:03.096Z,4.60
2022-10-12T02:32:03.120Z,4.60
2022-10-12T02:33:03.115Z,4.60
2022-10-12T02:34:03.317Z,4.60
2022-10-12T02:35:03.295Z,4.60
2022-10-12T02:36:03.337Z,4.60
2022-10-12T02:37:03.362Z,4.60
2022-10-12T02:38:03.473Z,4.70
2022-10-12T02:39:03.576Z,4.70
2022-10-12T02:40:02.669Z,4.70
2022-10-12T02:41:02.751Z,4.70
2022-10-12T02:42:02.744Z,4.70
2022-10-12T02:43:10.167Z,4.70
2022-10-12T02:44:02.763Z,4.80
2022-10-12T02:45:02.729Z,4.80
2022-10-12T02:46:02.788Z,4.80
2022-10-12T02:47:02.819Z,4.80
2022-10-12T02:48:02.805Z,4.80
2022-10-12T02:49:02.910Z,4.80
2022-10-12T02:50:02.922Z,4.80
2022-10-12T02:51:02.852Z,4.80
2022-10-12T02:52:02.942Z,4.80
2022-10-12T02:53:03.049Z,4.90
2022-10-12T02:54:03.137Z,4.90
2022-10-12T02:55:03.055Z,4.90
2022-10-12T02:56:03.029Z,4.90
2022-10-12T02:57:03.067Z,4.90
2022-10-12T02:58:03.100Z,4.90
2022-10-12T02:59:03.109Z,4.90
2022-10-12T03:00:03.080Z,4.90
2022-10-12T03:01:03.231Z,4.90
2022-10-12T03:02:03.193Z,4.90
2022-10-12T03:03:03.152Z,5.00
2022-10-12T03:04:03.351Z,5.00
2022-10-12T03:05:03.294Z,5.00
2022-10-12T03:06:03.301Z,5.00
2022-10-12T03:07:03.387Z,5.00
2022-10-12T03:08:03.449Z,5.00
2022-10-12T03:10:02.777Z,5.00
2022-10-12T03:11:02.791Z,5.00
2022-10-12T03:12:02.837Z,5.00
2022-10-12T03:13:02.840Z,5.00
2022-10-12T03:14:02.794Z,5.00
2022-10-12T03:15:02.832Z,5.10
2022-10-12T03:16:02.885Z,5.10
2022-10-12T03:17:02.944Z,5.00
2022-10-12T03:18:03.021Z,5.00
2022-10-12T03:19:02.986Z,5.00
2022-10-12T03:20:03.041Z,5.00
2022-10-12T03:21:03.070Z,5.00
2022-10-12T03:22:03.017Z,5.00
2022-10-12T03:23:03.115Z,5.00
2022-10-12T03:24:03.100Z,5.00
2022-10-12T03:25:03.150Z,5.00
2022-10-12T03:26:03.252Z,5.00
2022-10-12T03:27:03.228Z,5.00
2022-10-12T03:28:03.212Z,5.00
2022-10-12T03:29:03.331Z,4.90
2022-10-12T03:30:03.298Z,5.00
2022-10-12T03:31:03.378Z,4.90
2022-10-12T03:32:03.558Z,4.90
2022-10-12T03:33:03.508Z,4.90
2022-10-12T03:34:03.629Z,4.90
2022-10-12T03:35:03.566Z,4.90
2022-10-12T03:36:02.675Z,4.90
2022-10-12T03:37:02.660Z,4.90
2022-10-12T03:38:02.668Z,4.90
2022-10-12T03:39:02.641Z,4.90
2022-10-12T03:40:02.745Z,4.90
2022-10-12T03:41:06.524Z,4.90
2022-10-12T03:42:02.916Z,4.90
2022-10-12T03:43:02.911Z,4.90
2022-10-12T03:44:02.954Z,4.90
2022-10-12T03:45:03.014Z,4.90
2022-10-12T03:46:02.939Z,4.80
2022-10-12T03:47:02.918Z,4.80
2022-10-12T03:48:05.027Z,4.80
2022-10-12T03:49:02.937Z,4.80
2022-10-12T03:50:02.895Z,4.80
2022-10-12T03:51:02.920Z,4.80
2022-10-12T03:52:02.877Z,4.80
2022-10-12T03:53:02.885Z,4.80
2022-10-12T03:54:02.918Z,4.80
2022-10-12T03:55:02.814Z,4.80
2022-10-12T03:56:02.800Z,4.80
2022-10-12T03:57:02.841Z,4.80
2022-10-12T03:58:02.896Z,4.80
2022-10-12T03:59:02.980Z,4.80
2022-10-12T04:00:03.073Z,4.80
2022-10-12T04:01:03.401Z,4.80
2022-10-12T04:02:03.395Z,4.80
2022-10-12T04:03:03.475Z,4.80
2022-10-12T04:04:03.451Z,4.80
2022-10-12T04:05:02.722Z,4.80
2022-10-12T04:06:02.796Z,4.80
2022-10-12T04:07:02.877Z,4.80
2022-10-12T04:08:02.920Z,4.80
2022-10-12T04:09:02.922Z,4.80
2022-10-12T04:10:02.844Z,4.80
2022-10-12T04:11:02.888Z,4.80
2022-10-12T04:12:02.991Z,4.80
2022-10-12T04:13:03.042Z,4.80
2022-10-12T04:14:03.032Z,4.80
2022-10-12T04:15:02.981Z,4.80
2022-10-12T04:16:03.118Z,4.80
2022-10-12T04:17:03.182Z,4.80
2022-10-12T04:18:03.174Z,4.80
2022-10-12T04:19:03.247Z,4.80
2022-10-12T04:20:03.325Z,4.80
2022-10-12T04:21:03.324Z,4.80
2022-10-12T04:22:03.243Z,4.80
2022-10-12T04:23:03.324Z,4.80
2022-10-12T04:24:03.277Z,4.80
2022-10-12T04:25:03.618Z,4.80
2022-10-12T04:26:03.247Z,4.80
2022-10-12T04:27:03.341Z,4.80
2022-10-12T04:28:03.327Z,4.80
2022-10-12T04:29:03.418Z,4.80
2022-10-12T04:30:03.433Z,4.80
2022-10-12T04:31:03.336Z,4.80
2022-10-12T04:32:03.366Z,4.80
2022-10-12T04:33:03.497Z,4.80
2022-10-12T04:34:03.476Z,4.80
2022-10-12T04:35:03.581Z,4.80
2022-10-12T04:36:03.615Z,4.80
2022-10-12T04:37:03.614Z,4.80
2022-10-12T04:38:03.551Z,4.80
2022-10-12T04:39:02.634Z,4.80
2022-10-12T04:40:02.692Z,4.80
2022-10-12T04:41:02.707Z,4.80
2022-10-12T04:42:02.757Z,4.80
2022-10-12T04:43:02.799Z,4.80
2022-10-12T04:44:02.834Z,4.80
2022-10-12T04:45:02.985Z,4.80
2022-10-12T04:46:02.917Z,4.80
2022-10-12T04:47:02.949Z,4.80
2022-10-12T04:48:02.960Z,4.80
2022-10-12T04:49:02.940Z,4.80
2022-10-12T04:50:02.969Z,4.80
2022-10-12T04:51:02.956Z,4.80
2022-10-12T04:52:03.052Z,4.80
2022-10-12T04:53:03.028Z,4.80
2022-10-12T04:54:03.028Z,4.80
2022-10-12T04:55:03.000Z,4.80
2022-10-12T04:56:03.063Z,4.80
2022-10-12T04:57:03.091Z,4.80
2022-10-12T04:58:03.033Z,4.80
2022-10-12T04:59:03.092Z,4.80
2022-10-12T05:00:03.116Z,4.70
2022-10-12T05:01:03.116Z,4.70
2022-10-12T05:02:03.049Z,4.70
2022-10-12T05:03:03.013Z,4.70
2022-10-12T05:04:02.944Z,4.70
2022-10-12T05:05:03.055Z,4.70
2022-10-12T05:06:03.072Z,4.70
2022-10-12T05:07:03.185Z,4.70
2022-10-12T05:08:03.265Z,4.70
2022-10-12T05:09:03.283Z,4.60
2022-10-12T05:10:03.295Z,4.60
2022-10-12T05:11:03.451Z,4.60
2022-10-12T05:12:03.437Z,4.60
2022-10-12T05:13:03.434Z,4.60
2022-10-12T05:14:03.467Z,4.60
2022-10-12T05:15:03.418Z,4.60
2022-10-12T05:16:03.419Z,4.60
2022-10-12T05:17:03.675Z,4.60
2022-10-12T05:18:03.457Z,4.60
2022-10-12T05:19:03.600Z,4.60
2022-10-12T05:20:02.774Z,4.60
2022-10-12T05:21:02.718Z,4.50
2022-10-12T05:22:02.768Z,4.50
2022-10-12T05:23:02.782Z,4.50
2022-10-12T05:24:02.694Z,4.50
2022-10-12T05:25:02.798Z,4.50
2022-10-12T05:26:02.862Z,4.50
2022-10-12T05:27:03.056Z,4.50
2022-10-12T05:28:03.050Z,4.50
2022-10-12T05:29:03.082Z,4.50
2022-10-12T05:30:03.075Z,4.40
2022-10-12T05:31:03.069Z,4.40
2022-10-12T05:32:03.224Z,4.50
2022-10-12T05:33:03.247Z,4.40
2022-10-12T05:34:03.254Z,4.40
2022-10-12T05:35:03.245Z,4.40
2022-10-12T05:36:03.431Z,4.40
2022-10-12T05:37:03.488Z,4.40
2022-10-12T05:38:03.478Z,4.40
2022-10-12T05:39:03.456Z,4.40
2022-10-12T05:40:03.467Z,4.40
2022-10-12T05:41:03.441Z,4.40
2022-10-12T05:42:03.426Z,4.40
2022-10-12T05:43:03.362Z,4.30
2022-10-12T05:44:03.548Z,4.30
2022-10-12T05:45:03.485Z,4.30
2022-10-12T05:46:03.589Z,4.30
2022-10-12T05:47:05.215Z,4.30
2022-10-12T05:48:03.534Z,4.30
2022-10-12T05:49:03.658Z,4.30
2022-10-12T05:50:03.653Z,4.30
2022-10-12T05:51:02.619Z,4.30
2022-10-12T05:52:02.815Z,4.30
2022-10-12T05:53:02.783Z,4.30
2022-10-12T05:54:02.875Z,4.30
2022-10-12T05:55:02.840Z,4.30
2022-10-12T05:56:02.910Z,4.30
2022-10-12T05:57:02.947Z,4.30
2022-10-12T05:58:02.972Z,4.30
2022-10-12T05:59:02.959Z,4.30
2022-10-12T06:00:02.930Z,4.30
2022-10-12T06:01:02.903Z,4.30
2022-10-12T06:02:03.122Z,4.30
2022-10-12T06:03:02.953Z,4.30
2022-10-12T06:04:02.945Z,4.30
2022-10-12T06:05:02.902Z,4.30
2022-10-12T06:06:02.937Z,4.30
2022-10-12T06:07:02.930Z,4.30
2022-10-12T06:08:03.041Z,4.30
2022-10-12T06:09:03.005Z,4.30
2022-10-12T06:10:02.904Z,4.30
2022-10-12T06:11:02.934Z,4.30
2022-10-12T06:12:02.933Z,4.40
2022-10-12T06:13:02.910Z,4.40
2022-10-12T06:14:03.446Z,4.40
2022-10-12T06:15:03.318Z,4.40
2022-10-12T06:16:03.285Z,4.40
2022-10-12T06:17:03.476Z,4.50
2022-10-12T06:18:03.292Z,4.50
2022-10-12T06:19:03.294Z,4.50
2022-10-12T06:20:03.393Z,4.50
2022-10-12T06:21:21.302Z,4.60
2022-10-12T06:22:03.397Z,4.60
2022-10-12T06:23:03.324Z,4.60
2022-10-12T06:24:03.362Z,4.60
2022-10-12T06:25:03.546Z,4.70
2022-10-12T06:26:03.499Z,4.70
2022-10-12T06:27:03.637Z,4.70
2022-10-12T06:28:03.558Z,4.70
2022-10-12T06:29:03.527Z,4.70
2022-10-12T06:30:03.502Z,4.70
2022-10-12T06:31:03.552Z,4.80
2022-10-12T06:32:02.639Z,4.80
2022-10-12T06:33:02.763Z,4.80
2022-10-12T06:34:02.717Z,4.80
2022-10-12T06:35:02.740Z,4.80
2022-10-12T06:36:02.629Z,4.90
2022-10-12T06:37:02.744Z,4.90
2022-10-12T06:38:02.710Z,4.90
2022-10-12T06:39:02.616Z,4.90
2022-10-12T06:40:02.730Z,4.90
2022-10-12T06:41:02.709Z,4.90
2022-10-12T06:42:02.749Z,4.90
2022-10-12T06:43:02.778Z,5.00
2022-10-12T06:44:02.810Z,5.00
2022-10-12T06:45:02.883Z,5.00
2022-10-12T06:46:02.897Z,5.00
2022-10-12T06:47:02.905Z,5.00
2022-10-12T06:48:02.912Z,5.10
2022-10-12T06:49:02.948Z,5.10
2022-10-12T06:50:02.933Z,5.10
2022-10-12T06:51:03.023Z,5.10
2022-10-12T06:52:02.988Z,5.10
2022-10-12T06:53:03.139Z,5.20
2022-10-12T06:54:03.161Z,5.20
2022-10-12T06:55:03.157Z,5.20
2022-10-12T06:56:03.166Z,5.20
2022-10-12T06:57:03.259Z,5.20
2022-10-12T06:58:03.155Z,5.30
2022-10-12T06:59:03.176Z,5.30
2022-10-12T07:00:03.247Z,5.30
2022-10-12T07:01:03.384Z,5.40
2022-10-12T07:02:03.384Z,5.40
2022-10-12T07:03:03.340Z,5.40
2022-10-12T07:04:03.323Z,5.40
2022-10-12T07:05:03.442Z,5.40
2022-10-12T07:06:03.362Z,5.50
2022-10-12T07:07:04.427Z,5.50
2022-10-12T07:08:03.555Z,5.50
2022-10-12T07:09:03.508Z,5.50
2022-10-12T07:10:03.583Z,5.50
2022-10-12T07:11:03.625Z,5.50
2022-10-12T07:12:03.715Z,5.50
2022-10-12T07:13:03.588Z,5.60
2022-10-12T07:14:03.606Z,5.50
2022-10-12T07:15:03.580Z,5.60
2022-10-12T07:16:03.541Z,5.60
2022-10-12T07:17:03.572Z,5.60
2022-10-12T07:18:03.622Z,5.60
2022-10-12T07:19:03.614Z,5.60
2022-10-12T07:20:02.649Z,5.60
2022-10-12T07:21:02.836Z,5.60
2022-10-12T07:22:02.736Z,5.60
2022-10-12T07:23:02.769Z,5.70
2022-10-12T07:24:02.824Z,5.70
2022-10-12T07:25:02.707Z,5.80
2022-10-12T07:26:02.661Z,5.80
2022-10-12T07:27:03.646Z,5.90
2022-10-12T07:28:03.615Z,6.00
2022-10-12T07:29:02.637Z,6.00
2022-10-12T07:30:02.715Z,6.10
2022-10-12T07:31:02.738Z,6.20
2022-10-12T07:32:02.679Z,6.20
2022-10-12T07:33:03.137Z,6.30
2022-10-12T07:34:02.761Z,6.30
2022-10-12T07:35:02.798Z,6.30
2022-10-12T07:36:13.683Z,6.40
2022-10-12T07:37:02.846Z,6.40
2022-10-12T07:38:02.872Z,6.50
2022-10-12T07:39:02.888Z,6.50
2022-10-12T07:40:02.858Z,6.60
2022-10-12T07:41:02.835Z,6.70
2022-10-12T07:42:02.954Z,6.70
2022-10-12T07:43:15.528Z,6.80
2022-10-12T07:44:03.011Z,6.80
2022-10-12T07:45:03.130Z,6.90
2022-10-12T07:46:03.203Z,6.90
2022-10-12T07:47:03.236Z,6.90
2022-10-12T07:48:03.312Z,7.00
2022-10-12T07:49:03.361Z,7.10
2022-10-12T07:50:03.368Z,7.10
2022-10-12T07:51:03.515Z,7.20
2022-10-12T07:52:03.456Z,7.20
2022-10-12T07:53:03.561Z,7.20
2022-10-12T07:54:03.544Z,7.20
2022-10-12T07:55:03.560Z,7.30
2022-10-12T07:56:03.626Z,7.30
2022-10-12T07:57:03.632Z,7.30
2022-10-12T07:58:03.627Z,7.30
2022-10-12T07:59:03.643Z,7.40
2022-10-12T08:00:03.659Z,7.40
2022-10-12T08:01:02.645Z,7.40
2022-10-12T08:02:02.928Z,7.50
2022-10-12T08:03:02.805Z,7.60
2022-10-12T08:04:02.793Z,7.60
2022-10-12T08:05:03.063Z,7.70
2022-10-12T08:06:03.638Z,7.80
2022-10-12T08:07:03.594Z,7.90
2022-10-12T08:08:03.535Z,8.00
2022-10-12T08:09:03.596Z,8.00
2022-10-12T08:10:03.576Z,8.10
2022-10-12T08:11:02.738Z,8.20
2022-10-12T08:12:02.762Z,8.30
2022-10-12T08:13:02.682Z,8.30
2022-10-12T08:14:02.767Z,8.40
2022-10-12T08:15:02.763Z,8.40
2022-10-12T08:16:02.837Z,8.50
2022-10-12T08:17:02.950Z,8.50
2022-10-12T08:18:02.685Z,8.60
2022-10-12T08:19:02.682Z,8.60
2022-10-12T08:20:02.697Z,8.60
2022-10-12T08:21:02.642Z,8.60
2022-10-12T08:22:03.583Z,8.60
2022-10-12T08:23:03.586Z,8.70
2022-10-12T08:24:03.612Z,8.70
2022-10-12T08:25:03.574Z,8.70
2022-10-12T08:26:03.576Z,8.70
2022-10-12T08:27:02.663Z,8.70
2022-10-12T08:28:02.740Z,8.70
2022-10-12T08:29:02.828Z,8.80
2022-10-12T08:30:02.833Z,8.80
2022-10-12T08:31:02.957Z,8.80
2022-10-12T08:32:02.895Z,8.80
2022-10-12T08:33:05.775Z,8.80
2022-10-12T08:34:03.051Z,8.80
2022-10-12T08:35:03.190Z,8.90
2022-10-12T08:36:03.166Z,8.90
2022-10-12T08:37:03.054Z,8.90
2022-10-12T08:38:03.047Z,8.90
2022-10-12T08:39:03.041Z,8.90
2022-10-12T08:40:03.669Z,9.00
2022-10-12T08:41:03.102Z,9.00
2022-10-12T08:42:03.130Z,9.00
2022-10-12T08:43:03.035Z,9.00
2022-10-12T08:44:03.037Z,9.10
2022-10-12T08:45:03.067Z,9.10
2022-10-12T08:46:03.037Z,9.10
2022-10-12T08:47:02.942Z,9.20
2022-10-12T08:48:03.005Z,9.20
2022-10-12T08:49:03.028Z,9.30
2022-10-12T08:50:03.137Z,9.30
2022-10-12T08:51:03.074Z,9.30
2022-10-12T08:52:03.242Z,9.40
2022-10-12T08:53:03.239Z,9.40
2022-10-12T08:54:03.296Z,9.40
2022-10-12T08:55:03.326Z,9.50
2022-10-12T08:56:03.414Z,9.50
2022-10-12T08:57:03.385Z,9.60
2022-10-12T08:58:03.467Z,9.60
2022-10-12T08:59:03.513Z,9.70
2022-10-12T09:00:03.519Z,9.70
2022-10-12T09:01:03.559Z,9.80
2022-10-12T09:02:03.567Z,9.80
2022-10-12T09:03:03.683Z,9.90
2022-10-12T09:04:03.587Z,9.90
2022-10-12T09:05:03.600Z,9.90
2022-10-12T09:06:02.691Z,10.00
2022-10-12T09:07:02.622Z,10.00
2022-10-12T09:08:02.707Z,10.10
2022-10-12T09:09:02.755Z,10.10
2022-10-12T09:10:02.736Z,10.20
2022-10-12T09:11:02.776Z,10.20
2022-10-12T09:12:02.849Z,10.20
2022-10-12T09:13:02.958Z,10.30
2022-10-12T09:14:03.000Z,10.30
2022-10-12T09:15:02.938Z,10.40
2022-10-12T09:16:03.044Z,10.40
2022-10-12T09:17:03.119Z,10.40
2022-10-12T09:18:03.031Z,10.40
2022-10-12T09:19:03.028Z,10.50
2022-10-12T09:20:03.053Z,10.50
2022-10-12T09:21:03.027Z,10.50
2022-10-12T09:22:03.186Z,10.60
2022-10-12T09:23:03.077Z,10.60
2022-10-12T09:24:03.025Z,10.60
2022-10-12T09:25:03.196Z,10.60
2022-10-12T09:26:03.330Z,10.70
2022-10-12T09:27:03.256Z,10.70
2022-10-12T09:28:03.164Z,10.80
2022-10-12T09:29:03.238Z,10.90
2022-10-12T09:30:03.305Z,10.90
2022-10-12T09:31:04.231Z,11.00
2022-10-12T09:32:03.101Z,11.10
2022-10-12T09:33:03.313Z,11.10
2022-10-12T09:34:03.187Z,11.20
2022-10-12T09:35:03.239Z,11.20
2022-10-12T09:36:03.564Z,11.30
2022-10-12T09:37:02.605Z,11.30
2022-10-12T09:38:03.678Z,11.40
2022-10-12T09:39:02.598Z,11.40
2022-10-12T09:40:02.819Z,11.40
2022-10-12T09:41:02.785Z,11.50
2022-10-12T09:42:02.797Z,11.50
2022-10-12T09:43:02.810Z,11.60
2022-10-12T09:44:02.920Z,11.60
2022-10-12T09:45:02.826Z,11.60
2022-10-12T09:46:02.895Z,11.70
2022-10-12T09:47:02.812Z,11.70
2022-10-12T09:48:02.960Z,11.80
2022-10-12T09:49:02.972Z,11.80
2022-10-12T09:50:03.137Z,11.90
2022-10-12T09:51:03.049Z,11.90
2022-10-12T09:52:03.115Z,12.00
2022-10-12T09:53:03.187Z,12.00
2022-10-12T09:54:03.187Z,12.10
2022-10-12T09:55:04.747Z,12.10
2022-10-12T09:56:03.374Z,12.20
2022-10-12T09:57:03.391Z,12.30
2022-10-12T09:58:03.431Z,12.30
2022-10-12T09:59:03.457Z,12.40
2022-10-12T10:00:03.396Z,12.50
2022-10-12T10:01:03.510Z,12.50
2022-10-12T10:02:02.676Z,12.60
2022-10-12T10:03:02.624Z,12.60
2022-10-12T10:04:02.673Z,12.70
2022-10-12T10:05:02.761Z,12.80
2022-10-12T10:06:02.846Z,12.80
2022-10-12T10:07:02.862Z,12.90
2022-10-12T10:08:02.817Z,13.00
2022-10-12T10:09:02.891Z,13.10
2022-10-12T10:10:02.933Z,13.20
2022-10-12T10:11:02.888Z,13.20
2022-10-12T10:12:02.845Z,13.30
2022-10-12T10:13:02.863Z,13.40
2022-10-12T10:14:02.838Z,13.50
2022-10-12T10:15:02.838Z,13.50
2022-10-12T10:16:02.783Z,13.60
2022-10-12T10:17:02.882Z,13.70
2022-10-12T10:18:02.812Z,13.80
2022-10-12T10:19:02.878Z,13.80
2022-10-12T10:20:02.843Z,13.90
2022-10-12T10:21:02.807Z,13.90
2022-10-12T10:22:02.874Z,14.00
2022-10-12T10:23:02.966Z,14.10
2022-10-12T10:24:02.932Z,14.10
2022-10-12T10:25:02.849Z,14.20
2022-10-12T10:26:02.931Z,14.20
2022-10-12T10:27:02.890Z,14.30
2022-10-12T10:28:02.953Z,14.30
2022-10-12T10:29:02.939Z,14.40
2022-10-12T10:30:10.848Z,14.40
2022-10-12T10:31:02.946Z,14.50
2022-10-12T10:32:02.883Z,14.50
2022-10-12T10:33:02.960Z,14.60
2022-10-12T10:34:02.970Z,14.60
2022-10-12T10:35:02.922Z,14.70
2022-10-12T10:36:02.896Z,14.70
2022-10-12T10:37:02.923Z,14.80
2022-10-12T10:38:02.907Z,14.80
2022-10-12T10:39:03.006Z,14.90
2022-10-12T10:40:02.979Z,14.90
2022-10-12T10:41:02.946Z,14.90
2022-10-12T10:42:02.945Z,15.00
2022-10-12T10:43:03.009Z,15.00
2022-10-12T10:44:03.063Z,15.10
2022-10-12T10:45:03.056Z,15.10
2022-10-12T10:46:03.061Z,15.20
2022-10-12T10:47:03.033Z,15.20
2022-10-12T10:48:03.059Z,15.20
2022-10-12T10:49:03.234Z,15.20
2022-10-12T10:50:03.147Z,15.30
2022-10-12T10:51:03.214Z,15.30
2022-10-12T10:52:03.145Z,15.30
2022-10-12T10:53:03.196Z,15.40
2022-10-12T10:54:03.151Z,15.40
2022-10-12T10:55:03.215Z,15.40
2022-10-12T10:56:03.202Z,15.40
2022-10-12T10:57:03.103Z,15.50
2022-10-12T10:58:03.104Z,15.50
2022-10-12T10:59:06.405Z,15.50
2022-10-12T11:00:26.317Z,15.50
2022-10-12T11:01:03.214Z,15.50
2022-10-12T11:02:03.384Z,15.60
2022-10-12T11:03:03.337Z,15.60
2022-10-12T11:04:03.436Z,15.60
2022-10-12T11:05:03.398Z,15.60
2022-10-12T11:06:03.381Z,15.70
2022-10-12T11:07:03.564Z,15.70
2022-10-12T11:08:03.602Z,15.70
2022-10-12T11:09:03.569Z,15.80
2022-10-12T11:10:03.685Z,15.80
2022-10-12T11:11:02.647Z,15.80
2022-10-12T11:12:02.808Z,15.80
2022-10-12T11:13:02.893Z,15.80
2022-10-12T11:14:02.880Z,15.90
2022-10-12T11:15:03.074Z,15.90
2022-10-12T11:16:03.009Z,15.90
2022-10-12T11:17:03.210Z,16.00
2022-10-12T11:18:03.132Z,16.00
2022-10-12T11:19:03.224Z,16.00
2022-10-12T11:20:03.347Z,16.00
2022-10-12T11:21:03.429Z,16.10
2022-10-12T11:22:03.445Z,16.10
2022-10-12T11:23:03.409Z,16.10
2022-10-12T11:24:03.286Z,16.10
2022-10-12T11:25:03.344Z,16.10
2022-10-12T11:26:03.407Z,16.10
2022-10-12T11:27:03.541Z,16.10
2022-10-12T11:28:03.492Z,16.10
2022-10-12T11:29:03.498Z,16.20
2022-10-12T11:30:09.142Z,16.20
2022-10-12T11:31:03.714Z,16.20
2022-10-12T11:32:02.644Z,16.20
2022-10-12T11:33:02.729Z,16.30
2022-10-12T11:34:02.845Z,16.30
2022-10-12T11:35:02.875Z,16.30
2022-10-12T11:36:02.955Z,16.40
2022-10-12T11:37:19.461Z,16.40
2022-10-12T11:38:02.891Z,16.50
2022-10-12T11:39:06.806Z,16.50
2022-10-12T11:40:02.931Z,16.50
2022-10-12T11:41:14.177Z,16.50
2022-10-12T11:42:20.728Z,16.60
2022-10-12T11:43:02.957Z,16.60
2022-10-12T11:44:03.024Z,16.60
2022-10-12T11:45:03.126Z,16.60
2022-10-12T11:46:03.133Z,16.60
2022-10-12T11:47:03.093Z,16.60
2022-10-12T11:48:03.129Z,16.60
2022-10-12T11:49:03.145Z,16.70
2022-10-12T11:50:03.135Z,16.70
2022-10-12T11:51:04.367Z,16.70
2022-10-12T11:52:03.327Z,16.70
2022-10-12T11:53:03.378Z,16.70
2022-10-12T11:54:03.433Z,16.70
2022-10-12T11:55:03.370Z,16.70
2022-10-12T11:56:03.438Z,16.80
2022-10-12T11:57:03.431Z,16.80
2022-10-12T11:58:03.447Z,16.80
2022-10-12T11:59:03.521Z,16.80
2022-10-12T12:00:03.413Z,16.80
2022-10-12T12:01:03.519Z,16.90
2022-10-12T12:02:03.476Z,16.90
2022-10-12T12:03:02.633Z,16.90
2022-10-12T12:04:12.491Z,16.90
2022-10-12T12:05:03.133Z,16.90
2022-10-12T12:06:03.164Z,17.00
2022-10-12T12:07:03.197Z,17.00
2022-10-12T12:08:03.281Z,17.00
2022-10-12T12:09:03.360Z,17.00
2022-10-12T12:10:03.556Z,17.00
2022-10-12T12:11:03.608Z,17.00
2022-10-12T12:12:02.685Z,17.00
2022-10-12T12:13:02.655Z,17.00
2022-10-12T12:14:02.741Z,17.10
2022-10-12T12:15:02.944Z,17.10
2022-10-12T12:16:02.844Z,17.10
2022-10-12T12:17:02.968Z,17.10
2022-10-12T12:18:03.144Z,17.20
2022-10-12T12:19:03.255Z,17.20
2022-10-12T12:20:03.371Z,17.20
2022-10-12T12:21:03.473Z,17.20
2022-10-12T12:22:03.485Z,17.30
2022-10-12T12:23:03.423Z,17.30
2022-10-12T12:24:03.424Z,17.30
2022-10-12T12:25:03.430Z,17.40
2022-10-12T12:26:03.559Z,17.40
2022-10-12T12:27:02.616Z,17.40
2022-10-12T12:28:02.760Z,17.40
2022-10-12T12:29:02.851Z,17.40
2022-10-12T12:30:02.852Z,17.30
2022-10-12T12:31:02.888Z,17.30
2022-10-12T12:32:02.898Z,17.30
2022-10-12T12:33:02.897Z,17.30
2022-10-12T12:35:02.916Z,17.20
2022-10-12T12:36:02.990Z,17.20
2022-10-12T12:37:02.990Z,17.20
2022-10-12T12:38:03.004Z,17.20
2022-10-12T12:39:02.940Z,17.10
2022-10-12T12:40:02.975Z,17.10
2022-10-12T12:41:02.977Z,17.10
2022-10-12T12:42:03.016Z,17.10
2022-10-12T12:43:03.083Z,17.10
2022-10-12T12:44:03.198Z,17.10
2022-10-12T12:45:03.151Z,17.10
2022-10-12T12:46:03.122Z,17.10
2022-10-12T12:47:06.015Z,17.20
2022-10-12T12:49:03.511Z,17.20
2022-10-12T12:50:02.686Z,17.30
2022-10-12T12:51:02.607Z,17.30
2022-10-12T12:52:02.678Z,17.30
2022-10-12T12:53:02.783Z,17.30
2022-10-12T12:54:02.705Z,17.40
2022-10-12T12:55:02.840Z,17.40
2022-10-12T12:56:02.838Z,17.40
2022-10-12T12:57:02.802Z,17.40
2022-10-12T12:58:02.988Z,17.40
2022-10-12T12:59:03.016Z,17.40
2022-10-12T13:00:03.152Z,17.40
2022-10-12T13:01:03.168Z,17.40
2022-10-12T13:02:03.306Z,17.40
2022-10-12T13:03:03.359Z,17.40
2022-10-12T13:04:03.396Z,17.40
2022-10-12T13:05:03.313Z,17.40
2022-10-12T13:06:03.397Z,17.40
2022-10-12T13:07:03.411Z,17.40
2022-10-12T13:08:04.357Z,17.40
2022-10-12T13:09:03.550Z,17.30
2022-10-12T13:10:03.514Z,17.30
2022-10-12T13:11:03.495Z,17.30
2022-10-12T13:12:02.671Z,17.30
2022-10-12T13:13:02.634Z,17.30